Time;durP1;ratioP1;P1;durP2;ratioP2;P2;SDS_P1;SDS_P2;PMS_P1;PMS_P2;Temp;Humidity;BMP_temperature;BMP_pressure;BME280_temperature;BME280_humidity;BME280_pressure;Samples;Min_cycle;Max_cycle;Signal;HPM_P1;HPM_P2
2023/04/18 00:00:27;;;;;;;14.75;9.82;;;8.90;99.90;;;;;;4978251;28;20122;-75
2023/04/18 00:02:54;;;;;;;13.80;9.82;;;9.60;99.90;;;;;;4977702;28;20043;-74
2023/04/18 00:05:20;;;;;;;15.65;9.52;;;8.90;99.90;;;;;;4992823;28;20042;-75
2023/04/18 00:07:46;;;;;;;13.57;9.60;;;8.80;99.90;;;;;;4980005;28;20053;-75
2023/04/18 00:10:12;;;;;;;14.90;9.73;;;9.40;99.90;;;;;;4978572;28;20046;-75
2023/04/18 00:12:38;;;;;;;15.63;9.68;;;8.80;99.90;;;;;;4995871;28;20056;-75
2023/04/18 00:15:07;;;;;;;14.70;9.48;;;8.70;99.90;;;;;;4996162;28;20056;-76
2023/04/18 00:17:34;;;;;;;14.50;9.75;;;8.70;99.90;;;;;;5010165;28;20042;-75
2023/04/18 00:20:01;;;;;;;20.27;9.85;;;8.60;99.90;;;;;;4995971;28;20045;-75
2023/04/18 00:22:27;;;;;;;13.40;9.40;;;8.60;99.90;;;;;;4979459;28;20393;-75
2023/04/18 00:24:53;;;;;;;13.98;10.00;;;9.60;99.90;;;;;;4995930;28;20117;-75
2023/04/18 00:27:20;;;;;;;17.58;9.80;;;8.50;99.90;;;;;;4995726;28;20124;-74
2023/04/18 00:29:46;;;;;;;16.52;9.90;;;8.50;99.90;;;;;;4999353;28;20583;-76
2023/04/18 00:32:12;;;;;;;17.30;10.60;;;8.40;99.90;;;;;;4999917;28;20046;-75
2023/04/18 00:34:39;;;;;;;14.32;9.75;;;8.40;99.90;;;;;;5011961;28;20371;-75
2023/04/18 00:37:05;;;;;;;14.55;9.68;;;8.40;99.90;;;;;;4993421;28;20104;-76
2023/04/18 00:39:30;;;;;;;15.70;10.57;;;8.40;99.90;;;;;;4995467;28;20042;-76
2023/04/18 00:41:56;;;;;;;17.02;10.25;;;8.40;99.90;;;;;;5011449;28;20062;-76
2023/04/18 00:44:22;;;;;;;14.73;9.85;;;8.40;99.90;;;;;;4995307;28;20120;-76
2023/04/18 00:46:50;;;;;;;12.82;9.13;;;8.30;99.90;;;;;;4979458;28;20054;-75
2023/04/18 00:49:15;;;;;;;16.20;10.48;;;8.30;99.90;;;;;;4995266;28;20053;-76
2023/04/18 00:51:45;;;;;;;15.50;10.35;;;8.30;99.90;;;;;;4995663;28;20126;-77
2023/04/18 00:54:13;;;;;;;14.82;10.15;;;8.30;99.90;;;;;;4996029;28;20515;-75
2023/04/18 00:56:41;;;;;;;17.55;10.48;;;8.20;99.90;;;;;;5012434;28;20042;-77
2023/04/18 00:59:08;;;;;;;16.27;10.43;;;8.20;99.90;;;;;;4996125;28;20038;-75
2023/04/18 01:01:34;;;;;;;16.88;11.35;;;8.20;99.90;;;;;;4994761;28;20046;-75
2023/04/18 01:03:59;;;;;;;15.48;9.82;;;8.20;99.90;;;;;;4996010;28;20046;-75
2023/04/18 01:06:26;;;;;;;18.75;10.68;;;8.20;99.90;;;;;;4996640;28;20127;-75
2023/04/18 01:08:53;;;;;;;17.10;10.43;;;8.20;99.90;;;;;;4971368;28;20054;-77
2023/04/18 01:11:19;;;;;;;16.73;10.55;;;8.10;99.90;;;;;;4981536;28;20060;-75
2023/04/18 01:14:05;;;;;;;17.35;10.80;;;8.10;99.90;;;;;;4995797;28;20053;-75
2023/04/18 01:16:35;;;;;;;18.88;10.98;;;8.10;99.90;;;;;;4998953;28;20132;-75
2023/04/18 01:19:06;;;;;;;18.15;10.90;;;8.10;99.90;;;;;;4994986;28;20030;-75
2023/04/18 01:21:42;;;;;;;16.30;10.00;;;8.10;99.90;;;;;;4981236;28;20037;-75
2023/04/18 01:24:16;;;;;;;22.33;10.43;;;8.00;99.90;;;;;;5014644;28;20038;-76
2023/04/18 01:26:43;;;;;;;18.63;10.38;;;8.00;99.90;;;;;;4981606;28;20108;-75
2023/04/18 01:29:09;;;;;;;18.17;10.98;;;8.00;99.90;;;;;;4993556;28;20117;-75
2023/04/18 01:31:36;;;;;;;18.00;11.00;;;8.00;99.90;;;;;;4979757;28;20048;-75
2023/04/18 01:34:04;;;;;;;18.13;11.50;;;8.00;99.90;;;;;;5013658;28;20367;-75
2023/04/18 01:36:32;;;;;;;18.65;10.23;;;7.90;99.90;;;;;;4979323;28;20203;-75
2023/04/18 01:38:58;;;;;;;15.68;10.95;;;7.90;99.90;;;;;;4995713;28;20577;-75
2023/04/18 01:41:24;;;;;;;17.83;10.90;;;7.90;99.90;;;;;;4998547;28;20564;-75
2023/04/18 01:43:50;;;;;;;17.27;10.25;;;7.90;99.90;;;;;;4997213;28;20046;-75
2023/04/18 01:46:15;;;;;;;18.00;10.10;;;7.90;99.90;;;;;;4987175;28;20053;-75
2023/04/18 01:48:41;;;;;;;16.38;10.68;;;7.80;99.90;;;;;;5012358;28;20033;-75
2023/04/18 01:51:07;;;;;;;17.02;10.73;;;7.80;99.90;;;;;;4993952;28;20128;-76
2023/04/18 01:53:33;;;;;;;14.65;10.50;;;7.80;99.90;;;;;;5012276;28;20509;-76
2023/04/18 01:55:59;;;;;;;17.75;10.98;;;7.80;99.90;;;;;;4978426;28;20038;-75
2023/04/18 01:58:25;;;;;;;14.85;10.25;;;7.80;99.90;;;;;;4999436;28;20072;-76
2023/04/18 02:00:52;;;;;;;16.90;10.68;;;7.80;99.90;;;;;;4994893;28;20042;-75
2023/04/18 02:03:18;;;;;;;16.08;10.63;;;7.80;99.90;;;;;;4994970;28;20183;-75
2023/04/18 02:05:45;;;;;;;17.45;11.00;;;7.80;99.90;;;;;;4975121;28;20100;-75
2023/04/18 02:08:12;;;;;;;19.20;11.18;;;7.70;99.90;;;;;;4975983;28;20049;-75
2023/04/18 02:10:38;;;;;;;16.08;10.95;;;7.70;99.90;;;;;;4994334;28;20050;-75
2023/04/18 02:13:05;;;;;;;20.52;11.82;;;7.70;99.90;;;;;;4977504;28;20127;-76
2023/04/18 02:15:31;;;;;;;16.65;10.95;;;7.70;99.90;;;;;;4993935;28;20045;-75
2023/04/18 02:18:00;;;;;;;16.65;10.05;;;7.70;99.90;;;;;;4987981;28;20053;-76
2023/04/18 02:20:32;;;;;;;15.02;11.13;;;7.70;99.90;;;;;;4976878;28;20062;-76
2023/04/18 02:22:59;;;;;;;15.90;10.05;;;7.70;99.90;;;;;;4978918;28;20041;-76
2023/04/18 02:25:26;;;;;;;14.48;10.00;;;7.70;99.90;;;;;;4993768;28;20096;-76
2023/04/18 02:27:53;;;;;;;16.02;10.13;;;7.70;99.90;;;;;;4971660;28;20033;-76
2023/04/18 02:30:19;;;;;;;15.75;10.45;;;7.70;99.90;;;;;;4992062;28;20034;-75
2023/04/18 02:32:44;;;;;;;14.57;10.30;;;7.70;99.90;;;;;;4993922;28;20103;-76
2023/04/18 02:35:11;;;;;;;15.75;10.27;;;7.70;99.90;;;;;;4992564;28;20044;-75
2023/04/18 02:37:37;;;;;;;15.50;10.13;;;7.70;99.90;;;;;;4990069;28;20053;-76
2023/04/18 02:40:03;;;;;;;16.95;10.77;;;7.70;99.90;;;;;;4993953;28;20034;-77
2023/04/18 02:42:30;;;;;;;14.88;10.02;;;7.70;99.90;;;;;;4995423;28;20061;-76
2023/04/18 02:44:56;;;;;;;15.52;10.27;;;7.50;99.90;;;;;;4976135;28;20034;-76
2023/04/18 02:47:22;;;;;;;17.23;10.60;;;7.70;99.90;;;;;;4998333;28;20046;-75
2023/04/18 02:49:48;;;;;;;16.98;10.40;;;7.70;99.90;;;;;;4978198;28;20042;-75
2023/04/18 02:52:13;;;;;;;17.73;10.85;;;7.70;99.90;;;;;;5011296;28;20130;-75
2023/04/18 02:54:39;;;;;;;15.25;10.00;;;7.70;99.90;;;;;;4992021;28;20184;-75
2023/04/18 02:57:05;;;;;;;18.42;11.40;;;7.60;99.90;;;;;;5011747;28;20099;-76
2023/04/18 02:59:30;;;;;;;15.95;10.48;;;7.70;99.90;;;;;;4996326;28;20410;-76
2023/04/18 03:01:56;;;;;;;16.63;10.10;;;7.80;99.90;;;;;;4997286;28;20037;-75
2023/04/18 03:04:21;;;;;;;18.02;10.27;;;7.70;99.90;;;;;;4997665;28;20081;-75
2023/04/18 03:06:48;;;;;;;15.23;10.25;;;7.60;99.90;;;;;;4995592;28;20173;-76
2023/04/18 03:09:15;;;;;;;18.23;10.80;;;7.70;99.90;;;;;;4981294;28;20501;-75
2023/04/18 03:11:41;;;;;;;17.48;10.50;;;7.70;99.90;;;;;;5014790;28;20328;-75
2023/04/18 03:14:07;;;;;;;17.58;10.75;;;7.70;99.90;;;;;;4981173;28;20099;-75
2023/04/18 03:16:32;;;;;;;16.95;10.52;;;7.70;99.90;;;;;;4996959;28;20041;-75
2023/04/18 03:18:58;;;;;;;16.63;10.95;;;7.70;99.90;;;;;;4997698;28;20474;-75
2023/04/18 03:21:23;;;;;;;15.20;10.82;;;7.60;99.90;;;;;;4998131;28;20056;-75
2023/04/18 03:23:49;;;;;;;16.98;11.73;;;7.60;99.90;;;;;;4997048;28;20445;-76
2023/04/18 03:26:15;;;;;;;15.90;11.00;;;7.60;99.90;;;;;;4997483;28;20119;-75
2023/04/18 03:28:40;;;;;;;17.73;10.55;;;7.60;99.90;;;;;;4997453;28;20052;-76
2023/04/18 03:31:06;;;;;;;17.23;11.38;;;7.60;99.90;;;;;;4997081;28;20038;-76
2023/04/18 03:33:31;;;;;;;19.60;11.85;;;7.60;99.90;;;;;;4976229;28;20041;-76
2023/04/18 03:35:58;;;;;;;17.23;10.77;;;7.60;99.90;;;;;;4979676;28;20096;-76
2023/04/18 03:38:23;;;;;;;18.13;11.48;;;7.60;99.90;;;;;;4978161;28;20046;-76
2023/04/18 03:40:49;;;;;;;21.85;12.25;;;7.60;99.90;;;;;;4992295;28;20045;-76
2023/04/18 03:43:15;;;;;;;20.85;11.40;;;7.50;99.90;;;;;;4998545;28;20061;-76
2023/04/18 03:45:40;;;;;;;17.35;10.95;;;7.50;99.90;;;;;;4985637;28;20505;-76
2023/04/18 03:48:06;;;;;;;18.90;11.32;;;7.50;99.90;;;;;;4997133;28;20065;-76
2023/04/18 03:50:32;;;;;;;18.63;11.45;;;7.50;99.90;;;;;;4980637;28;20128;-76
2023/04/18 03:52:58;;;;;;;17.85;11.15;;;7.50;99.90;;;;;;4994065;28;20042;-76
2023/04/18 03:55:25;;;;;;;20.50;11.70;;;8.40;99.90;;;;;;4980082;28;20435;-76
2023/04/18 03:57:50;;;;;;;17.73;10.93;;;7.50;99.90;;;;;;4996509;28;20413;-76
2023/04/18 04:00:16;;;;;;;17.65;11.30;;;7.40;99.90;;;;;;4979715;28;20041;-76
2023/04/18 04:02:42;;;;;;;19.38;12.00;;;7.40;99.90;;;;;;4996146;28;20121;-76
2023/04/18 04:05:10;;;;;;;18.38;12.07;;;7.40;99.90;;;;;;4996129;28;20045;-75
2023/04/18 04:07:35;;;;;;;16.65;11.43;;;7.40;99.90;;;;;;4996836;28;20038;-76
2023/04/18 04:10:01;;;;;;;18.77;12.38;;;7.40;99.90;;;;;;4995533;28;20456;-75
2023/04/18 04:12:26;;;;;;;21.27;12.13;;;7.40;99.90;;;;;;4999320;28;20038;-75
2023/04/18 04:14:52;;;;;;;23.13;11.52;;;7.50;99.90;;;;;;4992905;28;20038;-76
2023/04/18 04:17:19;;;;;;;16.90;10.70;;;7.50;99.90;;;;;;5000508;28;20508;-76
2023/04/18 04:19:45;;;;;;;17.63;10.93;;;7.50;99.90;;;;;;5013882;28;20203;-75
2023/04/18 04:22:11;;;;;;;18.83;11.43;;;7.90;99.90;;;;;;4995877;28;20564;-75
2023/04/18 04:24:37;;;;;;;19.13;11.52;;;7.50;99.90;;;;;;4978172;28;20386;-75
2023/04/18 04:27:04;;;;;;;17.20;10.18;;;7.50;99.90;;;;;;5013426;28;20045;-76
2023/04/18 04:29:30;;;;;;;17.20;11.50;;;7.50;99.90;;;;;;4996753;28;20069;-75
2023/04/18 04:31:55;;;;;;;17.95;11.05;;;7.50;99.90;;;;;;4995891;28;20540;-75
2023/04/18 04:34:21;;;;;;;18.30;11.50;;;7.50;99.90;;;;;;5013341;28;20038;-76
2023/04/18 04:36:47;;;;;;;16.50;10.55;;;8.20;99.90;;;;;;4979547;28;20042;-76
2023/04/18 04:39:16;;;;;;;15.75;9.77;;;7.60;99.90;;;;;;4979571;28;20038;-76
2023/04/18 04:41:42;;;;;;;19.00;11.95;;;7.60;99.90;;;;;;4996276;28;20050;-75
2023/04/18 04:44:08;;;;;;;16.38;10.45;;;7.60;99.90;;;;;;4996183;28;20049;-75
2023/04/18 04:46:38;;;;;;;16.83;11.00;;;7.60;99.90;;;;;;5012756;28;20081;-76
2023/04/18 04:49:04;;;;;;;17.20;10.25;;;7.60;99.90;;;;;;4979773;28;20604;-76
2023/04/18 04:51:32;;;;;;;20.85;11.40;;;7.60;99.90;;;;;;4979629;28;20080;-74
2023/04/18 04:53:58;;;;;;;16.35;10.27;;;7.60;99.90;;;;;;5005775;28;20038;-75
2023/04/18 04:56:23;;;;;;;15.95;10.55;;;7.60;99.90;;;;;;4982990;28;20128;-75
2023/04/18 04:58:49;;;;;;;14.80;10.52;;;7.60;99.90;;;;;;5014040;28;20093;-74
2023/04/18 05:01:17;;;;;;;18.35;10.73;;;7.60;99.90;;;;;;4975830;28;20092;-76
2023/04/18 05:03:43;;;;;;;17.00;10.23;;;7.70;99.90;;;;;;4992204;28;20066;-75
2023/04/18 05:06:09;;;;;;;17.10;11.20;;;7.60;99.90;;;;;;4987629;28;20045;-76
2023/04/18 05:08:34;;;;;;;16.40;10.65;;;7.70;99.90;;;;;;4987760;28;20041;-76
2023/04/18 05:11:01;;;;;;;18.85;10.68;;;7.70;99.90;;;;;;4995156;28;20473;-72
2023/04/18 05:13:26;;;;;;;17.90;10.77;;;7.80;99.90;;;;;;4979059;28;20034;-75
2023/04/18 05:15:52;;;;;;;20.27;11.00;;;7.80;99.90;;;;;;4995988;28;20034;-75
2023/04/18 05:18:17;;;;;;;18.45;11.85;;;7.80;99.90;;;;;;4978609;28;20037;-75
2023/04/18 05:20:43;;;;;;;16.30;10.75;;;7.80;99.90;;;;;;4986698;28;20128;-76
2023/04/18 05:23:08;;;;;;;16.05;10.93;;;7.80;99.90;;;;;;5009772;28;20026;-74
2023/04/18 05:25:34;;;;;;;17.88;11.80;;;7.80;99.90;;;;;;4976985;28;20042;-75
2023/04/18 05:28:00;;;;;;;18.45;11.48;;;7.80;99.90;;;;;;4994562;28;20069;-75
2023/04/18 05:30:26;;;;;;;18.75;11.82;;;7.80;99.90;;;;;;4978726;28;20038;-75
2023/04/18 05:32:51;;;;;;;20.17;12.40;;;7.80;99.90;;;;;;4979372;28;20042;-75
2023/04/18 05:35:17;;;;;;;18.95;11.93;;;7.90;99.90;;;;;;4986759;28;20038;-77
2023/04/18 05:37:43;;;;;;;20.30;12.55;;;7.90;99.90;;;;;;4979789;28;20038;-74
2023/04/18 05:40:09;;;;;;;20.42;11.98;;;7.90;99.90;;;;;;5000898;28;20069;-75
2023/04/18 05:42:35;;;;;;;19.83;12.63;;;7.90;99.90;;;;;;4991246;28;20502;-75
2023/04/18 05:45:00;;;;;;;19.27;12.30;;;7.90;99.90;;;;;;4995436;28;20044;-76
2023/04/18 05:47:27;;;;;;;16.38;11.48;;;7.90;99.90;;;;;;5011973;28;20046;-76
2023/04/18 05:49:53;;;;;;;18.60;11.23;;;7.90;99.90;;;;;;5005566;28;20045;-76
2023/04/18 05:52:19;;;;;;;19.17;12.27;;;7.90;99.90;;;;;;4993809;28;20045;-75
2023/04/18 05:54:45;;;;;;;20.38;12.10;;;7.90;99.90;;;;;;4988477;28;20044;-75
2023/04/18 05:57:11;;;;;;;19.58;11.85;;;7.90;99.90;;;;;;4990040;28;20410;-75
2023/04/18 05:59:36;;;;;;;21.08;12.73;;;7.90;99.90;;;;;;4969375;28;20499;-74
2023/04/18 06:02:02;;;;;;;19.17;11.75;;;7.90;99.90;;;;;;5010013;28;20101;-76
2023/04/18 06:04:27;;;;;;;20.05;11.93;;;8.00;99.90;;;;;;4993488;28;20056;-74
2023/04/18 06:06:53;;;;;;;19.60;11.98;;;7.90;99.90;;;;;;4993683;28;20053;-75
2023/04/18 06:09:19;;;;;;;19.85;12.45;;;7.90;99.90;;;;;;4994209;28;20077;-75
2023/04/18 06:11:44;;;;;;;18.02;11.98;;;7.90;99.90;;;;;;4992942;28;20046;-76
2023/04/18 06:14:10;;;;;;;18.63;12.02;;;7.90;99.90;;;;;;4994068;28;20049;-75
2023/04/18 06:16:36;;;;;;;19.02;11.95;;;7.90;99.90;;;;;;4993632;28;20414;-75
2023/04/18 06:19:02;;;;;;;19.60;12.55;;;7.90;99.90;;;;;;4977634;28;20474;-74
2023/04/18 06:21:28;;;;;;;19.42;11.52;;;7.90;99.90;;;;;;4993886;28;20041;-75
2023/04/18 06:23:53;;;;;;;19.50;12.30;;;8.00;99.90;;;;;;4977909;28;20033;-75
2023/04/18 06:26:19;;;;;;;18.50;11.40;;;8.00;99.90;;;;;;4994161;28;20037;-75
2023/04/18 06:28:45;;;;;;;20.75;12.02;;;8.00;99.90;;;;;;4991041;28;20121;-75
2023/04/18 06:31:11;;;;;;;18.20;11.45;;;8.00;99.90;;;;;;5005498;28;20472;-74
2023/04/18 06:33:37;;;;;;;19.52;11.82;;;8.00;99.90;;;;;;4977238;28;20083;-75
2023/04/18 06:36:07;;;;;;;19.65;12.15;;;8.10;99.90;;;;;;5008320;28;20065;-77
2023/04/18 06:38:33;;;;;;;19.08;11.63;;;8.10;99.90;;;;;;5011189;28;20050;-76
2023/04/18 06:40:58;;;;;;;20.48;12.45;;;8.10;99.90;;;;;;5011050;28;20524;-75
2023/04/18 06:43:24;;;;;;;17.70;11.98;;;8.20;99.90;;;;;;4993459;28;20552;-75
2023/04/18 06:45:50;;;;;;;21.60;12.48;;;8.20;99.90;;;;;;4993329;28;20172;-75
2023/04/18 06:48:15;;;;;;;18.70;11.30;;;8.30;99.90;;;;;;4997977;28;20092;-75
2023/04/18 06:50:41;;;;;;;18.02;11.90;;;8.40;99.90;;;;;;5013105;28;20053;-75
2023/04/18 06:53:06;;;;;;;19.00;11.80;;;8.40;99.90;;;;;;4996624;23;20046;-70
2023/04/18 06:55:32;;;;;;;16.35;11.52;;;8.50;99.90;;;;;;4973428;28;20493;-71
2023/04/18 06:57:59;;;;;;;19.73;12.35;;;8.50;99.90;;;;;;4991539;28;20045;-70
2023/04/18 07:00:25;;;;;;;19.27;11.63;;;8.60;99.90;;;;;;4971259;28;20050;-71
2023/04/18 07:02:50;;;;;;;21.10;12.07;;;8.60;99.90;;;;;;4972794;28;20043;-71
2023/04/18 07:05:16;;;;;;;21.25;12.95;;;8.70;99.90;;;;;;4984157;28;20049;-70
2023/04/18 07:07:41;;;;;;;18.83;12.40;;;8.70;99.90;;;;;;4991459;28;20494;-70
2023/04/18 07:10:08;;;;;;;23.17;12.85;;;8.70;99.90;;;;;;4990726;28;20154;-71
2023/04/18 07:12:34;;;;;;;18.38;12.82;;;8.70;99.90;;;;;;4976901;28;20046;-70
2023/04/18 07:15:00;;;;;;;18.40;12.27;;;8.80;99.90;;;;;;4989490;28;20069;-70
2023/04/18 07:17:25;;;;;;;20.17;12.98;;;8.70;99.90;;;;;;4987873;28;20070;-70
2023/04/18 07:19:51;;;;;;;18.63;12.43;;;8.70;99.90;;;;;;4988381;28;20065;-70
2023/04/18 07:22:16;;;;;;;16.20;11.70;;;8.70;99.90;;;;;;4993244;28;20372;-71
2023/04/18 07:24:42;;;;;;;17.67;11.77;;;8.70;99.90;;;;;;4989362;28;20518;-71
2023/04/18 07:27:08;;;;;;;19.85;12.32;;;8.70;99.90;;;;;;4973568;28;20500;-70
2023/04/18 07:29:35;;;;;;;16.50;11.45;;;8.70;99.90;;;;;;4974611;28;20042;-70
2023/04/18 07:32:01;;;;;;;18.17;12.10;;;8.70;99.90;;;;;;4974104;28;20039;-70
2023/04/18 07:34:28;;;;;;;17.23;11.00;;;8.70;99.90;;;;;;4996139;28;20081;-70
2023/04/18 07:36:57;;;;;;;18.17;11.48;;;8.70;99.90;;;;;;4977540;28;20046;-70
2023/04/18 07:39:23;;;;;;;16.27;11.00;;;8.70;99.90;;;;;;4989098;28;20034;-70
2023/04/18 07:41:48;;;;;;;17.85;10.88;;;8.70;99.90;;;;;;4975444;28;20034;-70
2023/04/18 07:44:14;;;;;;;16.02;10.60;;;8.80;99.90;;;;;;4991532;28;20042;-70
2023/04/18 07:46:40;;;;;;;16.42;10.90;;;8.90;99.90;;;;;;4976344;28;20057;-72
2023/04/18 07:49:05;;;;;;;19.67;11.52;;;8.90;99.90;;;;;;4993654;28;20042;-72
2023/04/18 07:51:31;;;;;;;18.38;10.38;;;8.90;99.90;;;;;;4990090;28;20063;-70
2023/04/18 07:53:58;;;;;;;16.85;10.45;;;9.00;99.90;;;;;;4992970;28;20093;-70
2023/04/18 07:56:24;;;;;;;16.25;10.98;;;9.10;99.90;;;;;;4998690;28;20042;-70
2023/04/18 07:58:49;;;;;;;17.30;10.85;;;9.10;99.90;;;;;;4975044;28;20430;-70
2023/04/18 08:01:17;;;;;;;16.75;10.50;;;9.20;99.90;;;;;;4975053;28;20509;-70
2023/04/18 08:03:43;;;;;;;16.73;9.90;;;9.20;99.90;;;;;;4975118;28;20043;-71
2023/04/18 08:06:09;;;;;;;14.80;10.40;;;9.30;99.90;;;;;;4975177;28;20430;-71
2023/04/18 08:08:34;;;;;;;14.05;10.13;;;9.30;99.90;;;;;;4974964;28;20034;-70
2023/04/18 08:11:00;;;;;;;15.98;9.88;;;9.40;99.90;;;;;;4994111;28;20038;-72
2023/04/18 08:13:26;;;;;;;15.30;10.32;;;9.50;99.90;;;;;;4993640;28;20426;-70
2023/04/18 08:15:51;;;;;;;14.60;9.63;;;9.60;99.90;;;;;;4975594;28;20671;-70
2023/04/18 08:18:18;;;;;;;14.68;9.35;;;9.70;99.90;;;;;;4975742;28;20049;-70
2023/04/18 08:20:44;;;;;;;14.13;9.80;;;9.80;99.90;;;;;;4993904;28;20044;-71
2023/04/18 08:23:09;;;;;;;15.77;9.65;;;9.90;99.90;;;;;;4992384;28;20114;-71
2023/04/18 08:25:35;;;;;;;14.40;9.48;;;10.00;99.90;;;;;;4980031;28;20517;-71
2023/04/18 08:28:01;;;;;;;17.42;9.60;;;10.10;99.90;;;;;;4976620;28;20038;-71
2023/04/18 08:30:26;;;;;;;16.35;9.63;;;10.20;99.90;;;;;;4978552;28;20100;-70
2023/04/18 08:32:52;;;;;;;13.43;9.93;;;10.30;99.90;;;;;;4992565;28;20092;-70
2023/04/18 08:35:17;;;;;;;14.07;10.25;;;10.40;99.90;;;;;;4975128;28;20085;-71
2023/04/18 08:37:43;;;;;;;16.38;10.13;;;10.40;99.90;;;;;;4976201;28;20073;-71
2023/04/18 08:40:09;;;;;;;15.38;10.50;;;10.50;99.90;;;;;;4993581;28;20038;-70
2023/04/18 08:42:35;;;;;;;16.77;10.15;;;10.70;99.90;;;;;;4997069;28;20034;-70
2023/04/18 08:45:01;;;;;;;14.18;9.77;;;10.70;99.90;;;;;;4977092;28;20046;-72
2023/04/18 08:47:30;;;;;;;15.77;10.25;;;10.90;99.90;;;;;;4975602;28;20104;-70
2023/04/18 08:49:57;;;;;;;14.65;9.90;;;11.00;99.90;;;;;;4992721;28;20084;-70
2023/04/18 08:52:24;;;;;;;15.10;10.73;;;11.20;99.90;;;;;;4992721;28;20045;-70
2023/04/18 08:54:50;;;;;;;14.43;9.77;;;11.20;99.90;;;;;;4974956;28;20054;-71
2023/04/18 08:57:22;;;;;;;14.07;10.13;;;11.20;99.90;;;;;;4979715;28;20513;-70
2023/04/18 08:59:49;;;;;;;15.70;10.10;;;11.20;99.90;;;;;;4991779;28;20034;-71
2023/04/18 09:02:15;;;;;;;14.20;10.20;;;11.20;99.90;;;;;;4993243;28;20043;-71
2023/04/18 09:04:43;;;;;;;14.98;10.35;;;11.30;99.90;;;;;;4980183;28;20049;-71
2023/04/18 09:07:14;;;;;;;14.95;10.40;;;11.60;99.90;;;;;;4977016;28;20045;-70
2023/04/18 09:09:51;;;;;;;13.68;9.68;;;11.90;99.90;;;;;;4978933;28;20046;-71
2023/04/18 09:12:22;;;;;;;13.80;10.13;;;12.30;99.90;;;;;;4990067;28;20050;-70
2023/04/18 09:14:50;;;;;;;13.68;9.60;;;12.60;99.90;;;;;;4992705;28;20065;-71
2023/04/18 09:17:36;;;;;;;13.50;9.85;;;12.80;99.90;;;;;;4970718;28;20207;-70
2023/04/18 09:20:04;;;;;;;12.90;9.05;;;12.90;99.90;;;;;;4992761;28;20106;-72
2023/04/18 09:22:47;;;;;;;12.90;9.40;;;12.70;99.90;;;;;;4979059;28;20057;-71
2023/04/18 09:25:38;;;;;;;13.88;8.95;;;12.90;99.90;;;;;;4992121;28;20046;-71
2023/04/18 09:28:19;;;;;;;15.07;9.88;;;13.00;99.90;;;;;;4985741;28;20046;-70
2023/04/18 09:30:45;;;;;;;13.75;9.90;;;13.10;99.90;;;;;;4991778;28;20449;-70
2023/04/18 09:33:11;;;;;;;15.85;10.60;;;13.20;99.90;;;;;;4992231;28;20038;-71
2023/04/18 09:35:37;;;;;;;15.55;10.48;;;13.40;99.90;;;;;;4989695;28;20051;-71
2023/04/18 09:38:03;;;;;;;15.90;9.95;;;13.50;99.90;;;;;;4976300;28;20069;-72
2023/04/18 09:40:30;;;;;;;13.75;9.93;;;13.80;99.90;;;;;;4973636;28;20042;-72
2023/04/18 09:42:56;;;;;;;13.35;9.25;;;14.00;99.90;;;;;;4974223;28;20101;-72
2023/04/18 09:45:23;;;;;;;14.05;9.68;;;14.30;99.90;;;;;;4992719;28;20042;-71
2023/04/18 09:47:50;;;;;;;12.63;9.85;;;14.40;99.90;;;;;;4974140;28;20117;-71
2023/04/18 09:50:17;;;;;;;14.75;9.95;;;14.50;99.90;;;;;;4974430;28;20049;-71
2023/04/18 09:52:44;;;;;;;13.18;10.10;;;14.60;99.90;;;;;;4991068;28;20026;-71
2023/04/18 09:55:15;;;;;;;15.13;10.98;;;14.80;99.90;;;;;;4989812;28;20049;-71
2023/04/18 09:57:47;;;;;;;14.60;9.95;;;15.00;99.90;;;;;;4973917;28;20140;-72
2023/04/18 10:00:23;;;;;;;;;;;15.00;99.90;;;;;;4971785;28;20043;-70
2023/04/18 10:03:02;;;;;;;16.20;10.93;;;15.00;99.90;;;;;;4972768;28;20008;-71
2023/04/18 10:05:33;;;;;;;14.00;11.25;;;15.20;99.90;;;;;;4987209;28;20506;-71
2023/04/18 10:07:59;;;;;;;17.77;10.68;;;15.50;99.90;;;;;;4990494;28;20547;-71
2023/04/18 10:10:24;;;;;;;14.20;10.55;;;15.50;99.90;;;;;;4971006;28;20042;-71
2023/04/18 10:12:53;;;;;;;15.23;11.07;;;15.60;99.90;;;;;;4972719;28;20096;-71
2023/04/18 10:15:21;;;;;;;15.40;11.30;;;15.70;99.90;;;;;;4974291;28;20043;-71
2023/04/18 10:17:56;;;;;;;16.80;11.70;;;15.80;99.90;;;;;;4989588;28;20049;-71
2023/04/18 10:20:29;;;;;;;16.13;11.48;;;15.50;99.90;;;;;;4973445;28;20039;-71
2023/04/18 10:22:57;;;;;;;14.63;10.77;;;15.10;99.90;;;;;;4993585;28;20046;-71
2023/04/18 10:25:38;;;;;;;14.93;10.80;;;14.70;99.90;;;;;;4973347;28;20152;-71
2023/04/18 10:28:08;;;;;;;14.57;11.32;;;14.50;99.90;;;;;;4970062;28;20054;-71
2023/04/18 10:30:39;;;;;;;15.43;11.18;;;14.60;99.90;;;;;;4991432;28;20095;-71
2023/04/18 10:33:25;;;;;;;14.93;10.82;;;14.80;99.90;;;;;;4991345;28;20517;-71
2023/04/18 10:36:02;;;;;;;16.52;10.57;;;15.20;99.90;;;;;;4990413;28;20551;-72
2023/04/18 10:38:28;;;;;;;15.65;10.63;;;15.50;99.90;;;;;;4972311;28;20038;-71
2023/04/18 10:41:12;;;;;;;14.77;10.65;;;15.70;99.90;;;;;;4990689;28;20038;-71
2023/04/18 10:44:16;;;;;;;14.23;10.57;;;15.90;99.90;;;;;;4973831;28;20409;-71
2023/04/18 10:46:51;;;;;;;14.00;10.30;;;15.80;99.90;;;;;;4929579;28;20078;-71
2023/04/18 10:49:17;;;;;;;13.27;9.50;;;15.60;99.90;;;;;;4966477;28;20050;-72
2023/04/18 10:51:44;;;;;;;14.40;9.50;;;15.30;99.90;;;;;;4991178;28;20043;-71
2023/04/18 10:54:21;;;;;;;13.63;9.32;;;15.30;99.90;;;;;;4975964;28;20051;-71
2023/04/18 10:56:58;;;;;;;12.20;9.38;;;15.50;99.90;;;;;;4980896;28;20043;-71
2023/04/18 10:59:25;;;;;;;11.45;8.85;;;15.80;99.90;;;;;;4971254;28;20030;-71
2023/04/18 11:02:31;;;;;;;13.13;9.15;;;16.10;99.90;;;;;;4977206;28;20064;-71
2023/04/18 11:05:05;;;;;;;12.18;9.48;;;16.40;99.90;;;;;;4990780;28;20047;-71
2023/04/18 11:07:34;;;;;;;12.30;8.63;;;16.60;99.90;;;;;;4974100;28;20043;-71
2023/04/18 11:10:00;;;;;;;11.48;8.65;;;16.80;99.90;;;;;;4970173;28;20391;-71
2023/04/18 11:12:31;;;;;;;11.10;8.65;;;16.90;99.90;;;;;;4992223;28;20042;-71
2023/04/18 11:14:57;;;;;;;11.90;9.15;;;17.10;99.90;;;;;;4971905;28;20101;-71
2023/04/18 11:17:25;;;;;;;13.57;9.35;;;17.10;99.90;;;;;;4974207;28;20042;-71
2023/04/18 11:20:09;;;;;;;11.38;8.60;;;17.10;99.90;;;;;;4975342;28;20042;-71
2023/04/18 11:22:55;;;;;;;12.98;8.77;;;16.90;99.90;;;;;;4974744;28;20052;-71
2023/04/18 11:25:28;;;;;;;12.00;9.93;;;16.70;99.40;;;;;;4996078;28;20066;-71
2023/04/18 11:27:54;;;;;;;13.73;9.95;;;16.70;99.90;;;;;;4977459;28;20108;-71
2023/04/18 11:30:20;;;;;;;13.40;10.70;;;16.80;99.90;;;;;;4995238;28;20334;-71
2023/04/18 11:32:46;;;;;;;13.05;10.13;;;16.90;99.90;;;;;;5000630;28;20034;-71
2023/04/18 11:35:13;;;;;;;11.55;9.48;;;17.00;99.90;;;;;;4976974;28;20089;-71
2023/04/18 11:37:40;;;;;;;12.48;9.95;;;17.10;99.90;;;;;;4977033;28;20034;-71
2023/04/18 11:40:08;;;;;;;11.45;8.95;;;17.10;99.90;;;;;;4982837;28;20042;-71
2023/04/18 11:42:36;;;;;;;12.77;10.55;;;17.10;99.90;;;;;;4960616;28;20046;-71
2023/04/18 11:45:02;;;;;;;15.07;10.50;;;16.90;99.20;;;;;;4976721;28;20541;-71
2023/04/18 11:47:33;;;;;;;13.73;9.90;;;16.90;99.80;;;;;;4994057;28;20034;-71
2023/04/18 11:50:06;;;;;;;12.52;10.10;;;17.10;99.90;;;;;;4994126;28;20364;-72
2023/04/18 11:52:33;;;;;;;12.65;9.57;;;17.20;99.90;;;;;;4993779;28;20041;-71
2023/04/18 11:55:26;;;;;;;12.00;9.05;;;17.40;99.70;;;;;;4993684;28;20483;-71
2023/04/18 11:57:53;;;;;;;12.00;9.30;;;17.70;99.10;;;;;;4994114;28;20038;-72
2023/04/18 12:00:29;;;;;;;11.95;8.82;;;17.80;99.30;;;;;;4994188;28;20053;-71
2023/04/18 12:02:55;;;;;;;10.50;8.75;;;17.90;98.50;;;;;;4996257;28;20038;-72
2023/04/18 12:05:26;;;;;;;13.05;8.60;;;18.00;98.60;;;;;;4973261;28;20058;-71
2023/04/18 12:07:52;;;;;;;11.77;8.80;;;18.10;98.10;;;;;;4975913;28;20053;-72
2023/04/18 12:10:29;;;;;;;11.05;8.57;;;18.10;97.70;;;;;;4980628;28;20046;-72
2023/04/18 12:12:59;;;;;;;13.02;9.20;;;18.10;97.40;;;;;;4993959;28;20034;-72
2023/04/18 12:15:26;;;;;;;10.77;9.02;;;18.10;96.90;;;;;;4976139;28;20046;-71
2023/04/18 12:17:59;;;;;;;11.52;9.70;;;18.00;97.20;;;;;;4976520;28;20074;-71
2023/04/18 12:20:49;;;;;;;11.80;9.48;;;18.10;97.10;;;;;;4976095;28;20038;-71
2023/04/18 12:23:37;;;;;;;14.20;9.88;;;18.10;97.20;;;;;;4976735;28;20081;-71
2023/04/18 12:26:14;;;;;;;12.52;10.13;;;18.10;96.40;;;;;;4969117;28;20129;-71
2023/04/18 12:28:44;;;;;;;10.85;8.88;;;17.90;96.20;;;;;;4993743;28;20087;-71
2023/04/18 12:31:10;;;;;;;11.38;9.18;;;17.80;96.40;;;;;;4976100;28;20042;-71
2023/04/18 12:33:36;;;;;;;12.45;8.90;;;17.70;96.10;;;;;;4975896;28;20050;-71
2023/04/18 12:36:04;;;;;;;12.45;9.40;;;17.60;96.10;;;;;;4975734;28;20038;-71
2023/04/18 12:38:29;;;;;;;11.75;9.02;;;17.30;95.80;;;;;;4976293;28;20520;-71